Time;durP1;ratioP1;P1;durP2;ratioP2;P2;SDS_P1;SDS_P2;PMS_P1;PMS_P2;Temp;Humidity;BMP_temperature;BMP_pressure;BME280_temperature;BME280_humidity;BME280_pressure;Samples;Min_cycle;Max_cycle;Signal;HPM_P1;HPM_P2
2021/06/24 00:00:36;;;;;;;11.63;5.32;;;;;;;;;;4988800;28;21277;-71
2021/06/24 00:03:02;;;;;;;10.63;5.20;;;;;;;;;;4994749;28;20210;-71
2021/06/24 00:05:27;;;;;;;10.10;5.53;;;;;;;;;;4988395;28;20206;-71
2021/06/24 00:07:52;;;;;;;9.63;5.18;;;;;;;;;;5007978;28;20199;-70
2021/06/24 00:10:17;;;;;;;11.82;5.53;;;;;;;;;;4986252;28;20194;-71
2021/06/24 00:12:43;;;;;;;9.15;5.43;;;;;;;;;;4993214;28;20193;-71
2021/06/24 00:15:09;;;;;;;11.93;5.88;;;;;;;;;;4987436;28;20488;-71
2021/06/24 00:17:34;;;;;;;13.93;5.57;;;;;;;;;;4997410;28;20195;-71
2021/06/24 00:20:00;;;;;;;9.30;5.50;;;;;;;;;;4994813;28;20794;-71
2021/06/24 00:22:25;;;;;;;9.85;5.57;;;;;;;;;;4984270;28;20202;-71
2021/06/24 00:24:50;;;;;;;12.63;5.68;;;;;;;;;;4993994;28;20321;-71
2021/06/24 00:27:16;;;;;;;8.82;5.50;;;;;;;;;;4987288;28;23032;-70
2021/06/24 00:29:41;;;;;;;11.70;5.40;;;;;;;;;;4995192;28;20725;-71
2021/06/24 00:32:07;;;;;;;12.60;5.60;;;;;;;;;;4986212;28;20240;-71
2021/06/24 00:34:32;;;;;;;10.75;5.70;;;;;;;;;;4995151;28;20608;-71
2021/06/24 00:36:57;;;;;;;10.63;5.85;;;;;;;;;;4987794;28;20187;-71
2021/06/24 00:39:23;;;;;;;12.52;5.88;;;;;;;;;;4994259;28;20189;-71
2021/06/24 00:41:50;;;;;;;8.70;5.43;;;;;;;;;;4984991;28;20820;-71
2021/06/24 00:44:15;;;;;;;15.50;5.85;;;;;;;;;;4990958;28;20276;-71
2021/06/24 00:46:40;;;;;;;10.57;6.07;;;;;;;;;;4985958;28;20194;-71
2021/06/24 00:49:07;;;;;;;11.93;6.05;;;;;;;;;;4993847;28;20310;-71
2021/06/24 00:51:33;;;;;;;11.43;5.50;;;;;;;;;;4994216;28;20562;-71
2021/06/24 00:53:58;;;;;;;11.45;5.40;;;;;;;;;;4988399;28;20178;-70
2021/06/24 00:56:30;;;;;;;10.18;5.50;;;;;;;;;;4995366;28;20199;-71
2021/06/24 00:58:55;;;;;;;14.38;6.03;;;;;;;;;;4985793;28;20344;-71
2021/06/24 01:01:21;;;;;;;13.95;6.32;;;;;;;;;;5008735;28;20309;-71
2021/06/24 01:03:46;;;;;;;10.98;5.63;;;;;;;;;;4987576;28;20227;-71
2021/06/24 01:06:12;;;;;;;12.80;6.10;;;;;;;;;;4993762;28;20198;-71
2021/06/24 01:08:37;;;;;;;11.68;5.53;;;;;;;;;;4990686;28;20194;-72
2021/06/24 01:11:02;;;;;;;12.48;6.15;;;;;;;;;;4994943;28;20191;-71
2021/06/24 01:13:28;;;;;;;12.23;6.10;;;;;;;;;;4986038;28;20191;-71
2021/06/24 01:15:53;;;;;;;11.35;6.22;;;;;;;;;;4995908;28;20273;-70
2021/06/24 01:18:19;;;;;;;10.23;6.13;;;;;;;;;;4984916;28;20233;-71
2021/06/24 01:20:44;;;;;;;12.07;5.88;;;;;;;;;;4994131;28;20249;-71
2021/06/24 01:23:10;;;;;;;11.55;5.57;;;;;;;;;;4993447;28;20214;-71
2021/06/24 01:25:36;;;;;;;9.20;5.50;;;;;;;;;;4987182;28;20675;-70
2021/06/24 01:28:06;;;;;;;10.07;5.55;;;;;;;;;;4996417;28;20199;-71
2021/06/24 01:30:32;;;;;;;13.50;6.28;;;;;;;;;;4987347;28;20214;-71
2021/06/24 01:32:58;;;;;;;10.88;5.85;;;;;;;;;;4993692;28;20272;-71
2021/06/24 01:35:25;;;;;;;10.00;6.07;;;;;;;;;;4984526;28;20175;-70
2021/06/24 01:38:05;;;;;;;13.75;6.40;;;;;;;;;;4995298;28;20187;-70
2021/06/24 01:40:32;;;;;;;10.48;5.78;;;;;;;;;;4987728;28;20198;-70
2021/06/24 01:42:58;;;;;;;11.70;6.43;;;;;;;;;;4993333;28;20187;-70
2021/06/24 01:45:24;;;;;;;14.40;6.45;;;;;;;;;;4983612;28;20519;-71
2021/06/24 01:47:50;;;;;;;12.68;6.07;;;;;;;;;;4995799;28;20537;-71
2021/06/24 01:50:16;;;;;;;14.45;6.65;;;;;;;;;;4984240;28;20269;-70
2021/06/24 01:52:46;;;;;;;10.45;6.55;;;;;;;;;;4994817;28;20199;-70
2021/06/24 01:55:12;;;;;;;10.80;6.47;;;;;;;;;;4990437;28;20244;-71
2021/06/24 01:57:38;;;;;;;13.82;6.25;;;;;;;;;;4996416;28;20193;-71
2021/06/24 02:00:08;;;;;;;17.90;7.57;;;;;;;;;;4999094;28;20211;-70
2021/06/24 02:02:34;;;;;;;13.60;6.70;;;;;;;;;;4991358;28;20221;-71
2021/06/24 02:05:00;;;;;;;12.70;6.25;;;;;;;;;;4996540;28;20199;-70
2021/06/24 02:07:25;;;;;;;13.13;6.68;;;;;;;;;;4991542;28;20183;-70
2021/06/24 02:09:50;;;;;;;10.20;6.68;;;;;;;;;;4998758;28;20214;-70
2021/06/24 02:12:16;;;;;;;14.32;6.75;;;;;;;;;;4987423;28;20189;-71
2021/06/24 02:14:41;;;;;;;12.07;7.07;;;;;;;;;;4996970;28;20179;-71
2021/06/24 02:17:07;;;;;;;11.60;6.47;;;;;;;;;;4986341;28;20606;-71
2021/06/24 02:19:32;;;;;;;12.63;6.88;;;;;;;;;;4997679;28;20643;-71
2021/06/24 02:21:57;;;;;;;12.65;7.18;;;;;;;;;;4989614;28;20218;-71
2021/06/24 02:24:23;;;;;;;11.45;6.70;;;;;;;;;;4998172;28;20234;-70
2021/06/24 02:26:48;;;;;;;13.43;6.32;;;;;;;;;;4994935;28;20266;-70
2021/06/24 02:29:14;;;;;;;15.88;7.07;;;;;;;;;;4991389;28;20282;-71
2021/06/24 02:31:39;;;;;;;14.10;6.57;;;;;;;;;;4995795;28;20230;-71
2021/06/24 02:34:05;;;;;;;13.25;6.55;;;;;;;;;;4990128;28;20193;-71
2021/06/24 02:36:30;;;;;;;11.23;6.82;;;;;;;;;;4996719;28;20190;-71
2021/06/24 02:38:56;;;;;;;13.90;7.45;;;;;;;;;;4991193;28;20230;-71
2021/06/24 02:41:21;;;;;;;16.98;7.55;;;;;;;;;;4996198;28;20190;-70
2021/06/24 02:43:46;;;;;;;19.30;7.05;;;;;;;;;;4990381;28;20199;-70
2021/06/24 02:46:12;;;;;;;14.55;7.80;;;;;;;;;;4994969;28;20193;-70
2021/06/24 02:48:37;;;;;;;11.15;7.50;;;;;;;;;;4988246;28;20231;-70
2021/06/24 02:51:03;;;;;;;9.80;7.18;;;;;;;;;;4994606;28;20547;-70
2021/06/24 02:53:29;;;;;;;12.35;7.10;;;;;;;;;;4990821;28;20201;-70
2021/06/24 02:55:54;;;;;;;13.48;7.80;;;;;;;;;;4996091;28;20186;-70
2021/06/24 02:58:20;;;;;;;13.57;7.05;;;;;;;;;;4997155;28;20484;-70
2021/06/24 03:00:45;;;;;;;15.40;7.80;;;;;;;;;;4985122;28;20225;-70
2021/06/24 03:03:11;;;;;;;12.77;7.63;;;;;;;;;;4997522;28;20174;-70
2021/06/24 03:05:36;;;;;;;9.95;7.13;;;;;;;;;;4988764;28;20217;-70
2021/06/24 03:08:01;;;;;;;14.13;7.65;;;;;;;;;;4997884;28;21040;-71
2021/06/24 03:10:27;;;;;;;13.10;7.43;;;;;;;;;;4986370;28;21019;-70
2021/06/24 03:12:52;;;;;;;10.75;7.60;;;;;;;;;;4997186;28;20183;-70
2021/06/24 03:15:18;;;;;;;14.85;7.95;;;;;;;;;;4988092;28;20240;-70
2021/06/24 03:17:43;;;;;;;15.30;7.45;;;;;;;;;;4996849;28;20628;-71
2021/06/24 03:20:11;;;;;;;14.20;8.20;;;;;;;;;;4988408;28;20249;-70
2021/06/24 03:22:36;;;;;;;10.82;7.80;;;;;;;;;;5009682;28;20261;-71
2021/06/24 03:25:04;;;;;;;13.55;7.60;;;;;;;;;;4987915;28;20523;-71
2021/06/24 03:27:30;;;;;;;12.10;7.13;;;;;;;;;;4997776;28;20318;-70
2021/06/24 03:29:55;;;;;;;14.85;7.78;;;;;;;;;;4995960;28;20273;-71
2021/06/24 03:32:20;;;;;;;13.30;7.43;;;;;;;;;;4987969;28;20253;-70
2021/06/24 03:34:46;;;;;;;15.70;7.78;;;;;;;;;;4996087;28;20188;-70
2021/06/24 03:37:12;;;;;;;13.13;7.25;;;;;;;;;;4987730;28;20625;-70
2021/06/24 03:39:38;;;;;;;13.13;7.30;;;;;;;;;;4992584;28;20191;-70
2021/06/24 03:42:04;;;;;;;15.15;8.02;;;;;;;;;;4990101;28;20565;-70
2021/06/24 03:44:29;;;;;;;12.98;7.72;;;;;;;;;;4995933;28;20218;-71
2021/06/24 03:46:55;;;;;;;14.25;6.97;;;;;;;;;;4989272;28;20546;-70
2021/06/24 03:49:20;;;;;;;20.52;7.70;;;;;;;;;;4994235;28;20423;-70
2021/06/24 03:51:46;;;;;;;8.75;7.07;;;;;;;;;;4985540;28;20206;-70
2021/06/24 03:54:11;;;;;;;19.42;7.43;;;;;;;;;;4996314;28;20658;-72
2021/06/24 03:56:36;;;;;;;12.50;7.38;;;;;;;;;;4992080;28;20643;-70
2021/06/24 03:59:02;;;;;;;12.50;7.55;;;;;;;;;;4988573;28;21044;-71
2021/06/24 04:01:29;;;;;;;9.05;6.30;;;;;;;;;;4994440;28;20207;-70
2021/06/24 04:03:54;;;;;;;15.80;7.70;;;;;;;;;;4986337;28;20202;-71
2021/06/24 04:06:19;;;;;;;11.32;6.88;;;;;;;;;;4992626;28;20183;-71
2021/06/24 04:08:45;;;;;;;12.90;7.30;;;;;;;;;;4985784;28;20317;-71
2021/06/24 04:11:10;;;;;;;13.18;6.57;;;;;;;;;;4991489;28;20187;-71
2021/06/24 04:13:36;;;;;;;12.35;6.63;;;;;;;;;;4987048;28;20209;-71
2021/06/24 04:16:02;;;;;;;11.63;6.72;;;;;;;;;;4995361;28;20277;-71
2021/06/24 04:18:27;;;;;;;9.15;6.03;;;;;;;;;;4985384;28;20194;-71
2021/06/24 04:20:52;;;;;;;9.88;6.07;;;;;;;;;;4993989;28;20191;-71
2021/06/24 04:23:18;;;;;;;12.25;7.32;;;;;;;;;;4984434;28;20647;-71
2021/06/24 04:25:43;;;;;;;12.55;6.50;;;;;;;;;;4992741;28;20333;-71
2021/06/24 04:28:09;;;;;;;8.60;6.35;;;;;;;;;;4995268;28;20213;-71
2021/06/24 04:30:35;;;;;;;15.20;6.63;;;;;;;;;;4987969;28;20550;-70
2021/06/24 04:33:00;;;;;;;10.32;6.05;;;;;;;;;;4993579;28;20186;-71
2021/06/24 04:35:26;;;;;;;13.02;6.15;;;;;;;;;;4983255;28;20202;-71
2021/06/24 04:37:53;;;;;;;11.27;6.47;;;;;;;;;;4995511;28;20249;-70
2021/06/24 04:40:18;;;;;;;9.40;6.13;;;;;;;;;;4982565;28;20221;-71
2021/06/24 04:42:43;;;;;;;9.32;6.25;;;;;;;;;;4995279;28;20292;-71
2021/06/24 04:45:11;;;;;;;8.02;6.15;;;;;;;;;;4983643;28;20571;-71
2021/06/24 04:47:36;;;;;;;11.48;6.28;;;;;;;;;;4989177;28;21083;-71
2021/06/24 04:50:04;;;;;;;15.75;6.82;;;;;;;;;;4984403;28;20218;-71
2021/06/24 04:52:29;;;;;;;10.90;5.80;;;;;;;;;;4995323;28;20197;-71
2021/06/24 04:54:55;;;;;;;12.52;6.38;;;;;;;;;;4984103;28;20178;-71
2021/06/24 04:57:20;;;;;;;11.02;6.00;;;;;;;;;;4992364;28;20234;-69
2021/06/24 04:59:45;;;;;;;12.95;5.97;;;;;;;;;;4991834;28;20206;-71
2021/06/24 05:02:11;;;;;;;9.88;5.45;;;;;;;;;;4987016;28;20237;-70
2021/06/24 05:04:36;;;;;;;9.38;5.38;;;;;;;;;;4993858;28;20203;-70
2021/06/24 05:07:06;;;;;;;7.78;4.80;;;;;;;;;;4985568;28;20615;-71
2021/06/24 05:09:33;;;;;;;12.35;4.88;;;;;;;;;;4994907;28;20195;-71
2021/06/24 05:11:59;;;;;;;8.55;5.45;;;;;;;;;;4988516;28;20199;-70
2021/06/24 05:14:24;;;;;;;8.23;5.47;;;;;;;;;;4995033;28;20545;-68
2021/06/24 05:16:50;;;;;;;5.90;5.13;;;;;;;;;;4985884;28;20202;-71
2021/06/24 05:19:15;;;;;;;9.07;5.18;;;;;;;;;;4990649;28;20195;-71
2021/06/24 05:21:41;;;;;;;7.22;5.03;;;;;;;;;;4987428;28;20197;-70
2021/06/24 05:24:08;;;;;;;7.90;5.30;;;;;;;;;;4990632;28;20211;-71
2021/06/24 05:26:34;;;;;;;10.82;5.18;;;;;;;;;;4984750;28;20187;-70
2021/06/24 05:28:59;;;;;;;5.65;5.05;;;;;;;;;;4991436;28;20197;-71
2021/06/24 05:31:25;;;;;;;12.98;4.90;;;;;;;;;;4994710;28;20183;-71
2021/06/24 05:33:50;;;;;;;12.40;5.63;;;;;;;;;;4989469;28;20193;-70
2021/06/24 05:36:15;;;;;;;10.80;5.88;;;;;;;;;;4997251;28;20686;-71
2021/06/24 05:38:41;;;;;;;10.30;5.50;;;;;;;;;;4988783;28;20647;-71
2021/06/24 05:41:06;;;;;;;8.88;5.15;;;;;;;;;;5000099;28;20246;-71
2021/06/24 05:43:32;;;;;;;8.40;5.63;;;;;;;;;;4989342;28;20183;-71
2021/06/24 05:45:57;;;;;;;10.45;5.63;;;;;;;;;;4995851;28;20203;-71
2021/06/24 05:48:22;;;;;;;11.23;5.40;;;;;;;;;;4983450;28;20567;-71
2021/06/24 05:50:48;;;;;;;11.30;5.90;;;;;;;;;;4996885;28;20186;-71
2021/06/24 05:53:13;;;;;;;7.03;5.03;;;;;;;;;;4989200;28;20521;-71
2021/06/24 05:55:47;;;;;;;8.95;5.57;;;;;;;;;;5000406;28;20730;-71
2021/06/24 05:58:15;;;;;;;8.50;5.22;;;;;;;;;;4985466;28;20208;-71
2021/06/24 06:00:41;;;;;;;9.05;5.60;;;;;;;;;;4995659;28;20597;-71
2021/06/24 06:03:07;;;;;;;10.50;5.93;;;;;;;;;;4303220;28;10022658;-71
2021/06/24 06:05:33;;;;;;;11.40;6.05;;;;;;;;;;4984222;28;20215;-70
2021/06/24 06:07:59;;;;;;;9.40;5.53;;;;;;;;;;4990379;28;20595;-71
2021/06/24 06:10:24;;;;;;;10.13;4.95;;;;;;;;;;4988535;28;20731;-70
2021/06/24 06:12:50;;;;;;;11.05;5.35;;;;;;;;;;4994022;28;20198;-70
2021/06/24 06:15:15;;;;;;;7.88;5.30;;;;;;;;;;4987311;28;20190;-71
2021/06/24 06:17:41;;;;;;;8.95;4.97;;;;;;;;;;4994663;28;20221;-70
2021/06/24 06:20:06;;;;;;;10.05;4.90;;;;;;;;;;4986159;28;20192;-71
2021/06/24 06:22:32;;;;;;;8.57;4.72;;;;;;;;;;4996354;28;20194;-70
2021/06/24 06:24:58;;;;;;;8.48;5.35;;;;;;;;;;4989977;28;20214;-70
2021/06/24 06:27:23;;;;;;;10.30;5.60;;;;;;;;;;4995421;28;20201;-70
2021/06/24 06:29:48;;;;;;;6.57;4.78;;;;;;;;;;4989250;28;20242;-71
2021/06/24 06:32:14;;;;;;;10.57;4.78;;;;;;;;;;4999025;28;20190;-70
2021/06/24 06:34:39;;;;;;;9.48;4.75;;;;;;;;;;4996851;28;20187;-70
2021/06/24 06:37:05;;;;;;;7.78;4.97;;;;;;;;;;4988210;28;20998;-71
2021/06/24 06:39:30;;;;;;;8.63;4.82;;;;;;;;;;4994740;28;20182;-71
2021/06/24 06:41:55;;;;;;;8.75;5.13;;;;;;;;;;4987404;28;20293;-70
2021/06/24 06:44:21;;;;;;;8.10;4.43;;;;;;;;;;4994591;28;20214;-72
2021/06/24 06:46:46;;;;;;;7.28;4.70;;;;;;;;;;4989953;28;20190;-71
2021/06/24 06:49:11;;;;;;;8.05;4.68;;;;;;;;;;4992870;28;20238;-71
2021/06/24 06:51:37;;;;;;;9.57;4.78;;;;;;;;;;4984816;28;20195;-71
2021/06/24 06:54:02;;;;;;;7.50;4.93;;;;;;;;;;4995876;28;20191;-71
2021/06/24 06:56:28;;;;;;;8.02;4.45;;;;;;;;;;4988475;28;20199;-71
2021/06/24 06:58:53;;;;;;;9.93;4.57;;;;;;;;;;4994987;28;20187;-71
2021/06/24 07:01:19;;;;;;;8.15;4.80;;;;;;;;;;4992548;28;20206;-71
2021/06/24 07:03:44;;;;;;;8.55;4.93;;;;;;;;;;4992619;28;20539;-71
2021/06/24 07:06:10;;;;;;;11.75;5.15;;;;;;;;;;4993824;28;20206;-72
2021/06/24 07:08:35;;;;;;;6.85;5.13;;;;;;;;;;4984049;28;20731;-71
2021/06/24 07:11:00;;;;;;;11.77;5.13;;;;;;;;;;4992903;28;20233;-72
2021/06/24 07:13:26;;;;;;;9.00;5.10;;;;;;;;;;4984747;28;20289;-71
2021/06/24 07:15:56;;;;;;;7.82;4.72;;;;;;;;;;4991957;28;20595;-70
2021/06/24 07:18:21;;;;;;;5.40;4.90;;;;;;;;;;4984311;28;20222;-72
2021/06/24 07:20:46;;;;;;;11.00;4.75;;;;;;;;;;4993651;28;20635;-72
2021/06/24 07:23:12;;;;;;;8.50;4.72;;;;;;;;;;4982312;28;20198;-72
2021/06/24 07:25:37;;;;;;;6.72;4.57;;;;;;;;;;4996092;28;20292;-71
2021/06/24 07:28:03;;;;;;;8.30;4.85;;;;;;;;;;4984048;28;20190;-71
2021/06/24 07:30:28;;;;;;;7.50;3.80;;;;;;;;;;4993644;28;20274;-71
2021/06/24 07:32:53;;;;;;;7.25;4.68;;;;;;;;;;4992074;28;20188;-71
2021/06/24 07:35:19;;;;;;;6.25;3.90;;;;;;;;;;4985794;28;20202;-70
2021/06/24 07:37:44;;;;;;;4.97;3.28;;;;;;;;;;4993523;28;20195;-70
2021/06/24 07:40:10;;;;;;;6.47;3.78;;;;;;;;;;4986232;28;20195;-72
2021/06/24 07:42:36;;;;;;;7.13;4.00;;;;;;;;;;4996067;28;23696;-71
2021/06/24 07:45:03;;;;;;;7.15;3.65;;;;;;;;;;4985064;28;20697;-71
2021/06/24 07:47:28;;;;;;;7.90;3.65;;;;;;;;;;4993002;28;20194;-71
2021/06/24 07:49:53;;;;;;;6.93;3.30;;;;;;;;;;4985548;28;20230;-71
2021/06/24 07:52:19;;;;;;;4.10;3.22;;;;;;;;;;4992643;28;20198;-71
2021/06/24 07:54:44;;;;;;;5.65;3.45;;;;;;;;;;4987030;28;20186;-70
2021/06/24 07:57:09;;;;;;;10.07;4.47;;;;;;;;;;5007780;28;21048;-72
2021/06/24 07:59:35;;;;;;;6.80;3.92;;;;;;;;;;4987178;28;20876;-72
2021/06/24 08:02:01;;;;;;;5.90;3.85;;;;;;;;;;4992504;28;20222;-67
2021/06/24 08:04:26;;;;;;;9.27;3.83;;;;;;;;;;4991719;28;20875;-71
2021/06/24 08:06:52;;;;;;;7.07;3.78;;;;;;;;;;4986390;28;20190;-72
2021/06/24 08:09:18;;;;;;;7.45;4.07;;;;;;;;;;4994103;28;20238;-72
2021/06/24 08:11:43;;;;;;;5.65;3.92;;;;;;;;;;4983909;28;20190;-72
2021/06/24 08:14:09;;;;;;;6.15;3.97;;;;;;;;;;4995514;28;20183;-72
2021/06/24 08:16:35;;;;;;;4.65;3.50;;;;;;;;;;4985697;28;20202;-71
2021/06/24 08:19:01;;;;;;;6.40;3.78;;;;;;;;;;4991691;28;20198;-72
2021/06/24 08:21:26;;;;;;;9.88;4.15;;;;;;;;;;4998308;28;20245;-72
2021/06/24 08:23:52;;;;;;;6.45;4.00;;;;;;;;;;4993201;28;20202;-71
2021/06/24 08:26:18;;;;;;;6.32;3.42;;;;;;;;;;4981765;28;20207;-71
2021/06/24 08:28:43;;;;;;;5.78;4.43;;;;;;;;;;4991435;28;20597;-72
2021/06/24 08:31:09;;;;;;;9.10;4.35;;;;;;;;;;4983909;28;20187;-72
2021/06/24 08:33:34;;;;;;;8.07;4.25;;;;;;;;;;4991304;28;20201;-70
2021/06/24 08:36:00;;;;;;;5.60;4.05;;;;;;;;;;4993404;28;20210;-69
2021/06/24 08:38:25;;;;;;;8.10;3.80;;;;;;;;;;4986114;28;20225;-72
2021/06/24 08:40:51;;;;;;;8.07;4.28;;;;;;;;;;4994551;28;20209;-72
2021/06/24 08:43:16;;;;;;;8.48;4.30;;;;;;;;;;4983249;28;20183;-71
2021/06/24 08:45:42;;;;;;;10.18;4.63;;;;;;;;;;4993374;28;20218;-73
2021/06/24 08:48:13;;;;;;;6.45;4.10;;;;;;;;;;4981188;28;20309;-70
2021/06/24 08:50:48;;;;;;;6.15;3.80;;;;;;;;;;4992831;28;20282;-72
2021/06/24 08:53:16;;;;;;;7.43;4.68;;;;;;;;;;4981856;28;20186;-71
2021/06/24 08:55:45;;;;;;;4.95;4.00;;;;;;;;;;4992156;28;20178;-72
2021/06/24 08:58:10;;;;;;;5.65;4.40;;;;;;;;;;4983829;28;20223;-71
2021/06/24 09:00:36;;;;;;;7.07;4.18;;;;;;;;;;4994199;28;20230;-71
2021/06/24 09:03:31;;;;;;;6.68;4.50;;;;;;;;;;4983142;28;20194;-72
2021/06/24 09:05:56;;;;;;;5.45;4.10;;;;;;;;;;4989742;28;20313;-71
2021/06/24 09:08:25;;;;;;;6.40;4.43;;;;;;;;;;4985657;28;20595;-73
2021/06/24 09:11:14;;;;;;;6.22;4.95;;;;;;;;;;4991937;28;20209;-68
2021/06/24 09:13:40;;;;;;;7.03;4.55;;;;;;;;;;4987801;28;20645;-73
2021/06/24 09:16:18;;;;;;;5.95;4.50;;;;;;;;;;4994232;28;20273;-72
2021/06/24 09:18:43;;;;;;;12.55;5.13;;;;;;;;;;4987221;28;20179;-71
2021/06/24 09:21:24;;;;;;;8.35;4.53;;;;;;;;;;4993121;28;20195;-72
2021/06/24 09:23:52;;;;;;;11.38;4.88;;;;;;;;;;4995490;28;20191;-72
2021/06/24 09:26:18;;;;;;;7.45;4.38;;;;;;;;;;5006112;28;20294;-72
2021/06/24 09:28:52;;;;;;;7.53;4.22;;;;;;;;;;4995979;28;20187;-70
2021/06/24 09:31:27;;;;;;;6.80;4.57;;;;;;;;;;4986305;28;20220;-73
2021/06/24 09:33:54;;;;;;;7.20;4.60;;;;;;;;;;4992442;28;20677;-73
2021/06/24 09:36:46;;;;;;;6.32;4.65;;;;;;;;;;4984597;28;20631;-72
2021/06/24 09:39:25;;;;;;;7.53;4.85;;;;;;;;;;4992100;28;20565;-72
2021/06/24 09:42:12;;;;;;;6.28;5.28;;;;;;;;;;4984681;28;20195;-72
2021/06/24 09:44:40;;;;;;;7.60;5.70;;;;;;;;;;4994668;28;20202;-72
2021/06/24 09:47:26;;;;;;;6.97;6.03;;;;;;;;;;4986157;28;20210;-72
2021/06/24 09:49:55;;;;;;;7.78;4.78;;;;;;;;;;4996740;28;20231;-71
2021/06/24 09:52:21;;;;;;;8.30;5.50;;;;;;;;;;4986874;28;20202;-71
2021/06/24 09:54:50;;;;;;;7.70;5.75;;;;;;;;;;4994031;28;20604;-72
2021/06/24 09:57:23;;;;;;;8.90;5.60;;;;;;;;;;4984559;28;20341;-70
2021/06/24 09:59:51;;;;;;;8.07;5.45;;;;;;;;;;4999663;28;20183;-71
2021/06/24 10:02:19;;;;;;;8.77;5.68;;;;;;;;;;4987256;28;20249;-71
2021/06/24 10:04:46;;;;;;;6.72;5.35;;;;;;;;;;4995238;28;20556;-72
2021/06/24 10:07:13;;;;;;;7.70;5.90;;;;;;;;;;4986920;28;20642;-71
2021/06/24 10:09:41;;;;;;;5.93;5.30;;;;;;;;;;4995883;28;20236;-71
2021/06/24 10:12:09;;;;;;;9.43;5.82;;;;;;;;;;4986345;28;20199;-70
2021/06/24 10:14:34;;;;;;;8.10;5.50;;;;;;;;;;4994231;28;20793;-69
2021/06/24 10:17:02;;;;;;;6.55;5.95;;;;;;;;;;4985990;28;21422;-70
2021/06/24 10:19:33;;;;;;;9.18;5.50;;;;;;;;;;4995755;28;20281;-71
2021/06/24 10:22:18;;;;;;;7.63;6.07;;;;;;;;;;4988848;28;20662;-71
2021/06/24 10:24:54;;;;;;;9.88;6.70;;;;;;;;;;4995527;28;20207;-71
2021/06/24 10:27:20;;;;;;;8.18;6.20;;;;;;;;;;4987755;28;20196;-70
2021/06/24 10:29:48;;;;;;;11.45;6.57;;;;;;;;;;4995480;28;20271;-71
2021/06/24 10:32:26;;;;;;;9.80;6.78;;;;;;;;;;4992808;28;20661;-72
2021/06/24 10:34:52;;;;;;;9.95;6.05;;;;;;;;;;4987833;28;20191;-72
2021/06/24 10:37:23;;;;;;;8.10;5.93;;;;;;;;;;4993088;28;20278;-71
2021/06/24 10:39:54;;;;;;;8.40;6.10;;;;;;;;;;4987884;28;20199;-72
2021/06/24 10:42:21;;;;;;;12.43;6.88;;;;;;;;;;4993127;28;20191;-71
2021/06/24 10:44:55;;;;;;;11.10;6.78;;;;;;;;;;4985807;28;22032;-71
2021/06/24 10:47:41;;;;;;;7.72;6.80;;;;;;;;;;4992589;28;20754;-72
2021/06/24 10:53:02;;;;;;;9.73;6.30;;;;;;;;;;4993080;28;20191;-71
2021/06/24 10:55:30;;;;;;;8.68;6.90;;;;;;;;;;4985846;28;21199;-71
2021/06/24 10:57:56;;;;;;;9.02;7.13;;;;;;;;;;4997965;28;20178;-72
2021/06/24 11:00:43;;;;;;;8.13;7.10;;;;;;;;;;4982893;28;20215;-71
2021/06/24 11:03:13;;;;;;;8.57;7.70;;;;;;;;;;4990443;28;20194;-71
2021/06/24 11:05:46;;;;;;;9.85;7.50;;;;;;;;;;4998682;28;20221;-69
2021/06/24 11:08:17;;;;;;;9.60;6.18;;;;;;;;;;4994944;28;20182;-69
2021/06/24 11:10:55;;;;;;;9.10;6.80;;;;;;;;;;4987638;28;20202;-71
2021/06/24 11:13:36;;;;;;;10.15;7.35;;;;;;;;;;4992347;28;20179;-71
2021/06/24 11:16:18;;;;;;;10.57;7.68;;;;;;;;;;4985620;28;20506;-72
2021/06/24 11:18:56;;;;;;;8.20;6.93;;;;;;;;;;4994118;28;20174;-71
2021/06/24 11:21:41;;;;;;;8.98;6.80;;;;;;;;;;4986597;28;20264;-70
2021/06/24 11:24:06;;;;;;;8.25;7.18;;;;;;;;;;4993452;28;20186;-71
2021/06/24 11:26:33;;;;;;;9.82;7.07;;;;;;;;;;4985042;28;20203;-71
2021/06/24 11:32:31;;;;;;;8.43;7.35;;;;;;;;;;4986629;28;20202;-71
2021/06/24 11:37:05;;;;;;;10.23;8.18;;;;;;;;;;4984946;28;20535;-71
2021/06/24 11:40:00;;;;;;;9.35;7.68;;;;;;;;;;4994425;28;21892;-69
2021/06/24 11:42:36;;;;;;;11.05;8.10;;;;;;;;;;4985526;28;20207;-69
2021/06/24 11:45:05;;;;;;;9.88;8.35;;;;;;;;;;5003200;28;20272;-69
2021/06/24 11:47:32;;;;;;;12.43;7.75;;;;;;;;;;4987421;28;20646;-68
2021/06/24 12:03:20;;;;;;;11.93;9.05;;;;;;;;;;4985913;28;20199;-70
2021/06/24 12:05:51;;;;;;;10.25;9.23;;;;;;;;;;4996860;28;20210;-69
2021/06/24 12:08:25;;;;;;;11.63;8.85;;;;;;;;;;4987013;28;20183;-70
2021/06/24 12:11:02;;;;;;;10.13;8.80;;;;;;;;;;4994915;28;20605;-70
2021/06/24 12:13:29;;;;;;;12.23;8.93;;;;;;;;;;4986849;28;20286;-70
2021/06/24 12:15:55;;;;;;;12.68;9.63;;;;;;;;;;4994492;28;20209;-70
2021/06/24 12:18:43;;;;;;;11.80;9.25;;;;;;;;;;4987173;28;20651;-70
2021/06/24 12:21:15;;;;;;;10.13;8.70;;;;;;;;;;5010481;28;20190;-68
2021/06/24 12:23:48;;;;;;;10.60;9.10;;;;;;;;;;4988424;28;20281;-70
2021/06/24 12:26:15;;;;;;;10.90;8.27;;;;;;;;;;4994378;28;20272;-69
2021/06/24 12:28:42;;;;;;;10.77;8.82;;;;;;;;;;4997244;28;20708;-70
2021/06/24 12:31:22;;;;;;;11.88;8.68;;;;;;;;;;5003605;28;20289;-67
2021/06/24 12:33:49;;;;;;;14.25;9.68;;;;;;;;;;4997643;28;20371;-68
2021/06/24 12:36:15;;;;;;;10.35;8.85;;;;;;;;;;4986805;28;20187;-69
2021/06/24 12:38:44;;;;;;;11.48;8.93;;;;;;;;;;4996698;28;20191;-69
2021/06/24 12:41:14;;;;;;;10.38;9.38;;;;;;;;;;4986133;28;20290;-70
2021/06/24 12:43:39;;;;;;;12.13;9.30;;;;;;;;;;4997319;28;20187;-68
2021/06/24 12:46:07;;;;;;;10.43;8.75;;;;;;;;;;4299005;28;10000744;-71
2021/06/24 12:48:37;;;;;;;11.68;9.32;;;;;;;;;;4994328;28;20190;-72
2021/06/24 12:51:07;;;;;;;9.77;8.32;;;;;;;;;;4983012;28;20310;-70
2021/06/24 12:53:36;;;;;;;9.55;8.55;;;;;;;;;;4995424;28;20218;-68
2021/06/24 12:56:04;;;;;;;11.13;8.85;;;;;;;;;;4983902;28;20198;-66
2021/06/24 12:58:33;;;;;;;16.60;8.85;;;;;;;;;;4992517;28;20270;-70
2021/06/24 13:01:09;;;;;;;11.05;8.60;;;;;;;;;;4979914;28;20222;-71
2021/06/24 13:03:56;;;;;;;9.80;8.75;;;;;;;;;;4989512;28;20178;-70
2021/06/24 13:06:25;;;;;;;9.68;8.65;;;;;;;;;;4977026;28;20234;-69
2021/06/24 13:08:53;;;;;;;13.40;9.60;;;;;;;;;;4989646;28;20622;-68
2021/06/24 13:11:25;;;;;;;11.73;8.73;;;;;;;;;;4980003;28;22945;-69
2021/06/24 13:14:13;;;;;;;10.85;8.93;;;;;;;;;;4990955;28;20183;-69
2021/06/24 13:16:48;;;;;;;12.13;8.93;;;;;;;;;;4980363;28;20201;-70
2021/06/24 13:19:39;;;;;;;10.00;8.60;;;;;;;;;;4988687;28;20660;-70
2021/06/24 13:22:12;;;;;;;11.80;9.02;;;;;;;;;;4994141;28;20195;-70
2021/06/24 13:24:48;;;;;;;10.63;9.05;;;;;;;;;;4990673;28;20305;-70
2021/06/24 13:27:20;;;;;;;12.75;9.32;;;;;;;;;;4982245;28;20194;-70
2021/06/24 13:30:14;;;;;;;11.98;9.85;;;;;;;;;;4993505;28;20292;-68
2021/06/24 13:32:41;;;;;;;11.10;9.38;;;;;;;;;;4984421;28;20182;-71
2021/06/24 13:35:26;;;;;;;10.63;9.52;;;;;;;;;;4991558;28;20194;-71
2021/06/24 13:38:10;;;;;;;14.55;10.07;;;;;;;;;;4985963;28;20252;-71
2021/06/24 13:40:43;;;;;;;11.98;9.60;;;;;;;;;;4993876;28;20199;-67
2021/06/24 13:43:11;;;;;;;14.43;10.32;;;;;;;;;;4982523;28;20202;-68
2021/06/24 13:45:38;;;;;;;11.43;9.95;;;;;;;;;;4992418;28;20210;-69
2021/06/24 13:48:04;;;;;;;12.43;9.88;;;;;;;;;;4986007;28;20479;-69
2021/06/24 13:50:29;;;;;;;11.73;9.75;;;;;;;;;;4991000;28;20257;-69
2021/06/24 13:52:55;;;;;;;13.38;9.15;;;;;;;;;;4995424;28;20190;-66
2021/06/24 13:55:20;;;;;;;11.20;9.13;;;;;;;;;;4986722;28;20900;-68
2021/06/24 13:57:45;;;;;;;12.65;10.00;;;;;;;;;;4994656;28;20629;-69
2021/06/24 14:00:11;;;;;;;11.07;9.50;;;;;;;;;;4987670;28;20415;-68
2021/06/24 14:02:37;;;;;;;11.82;9.65;;;;;;;;;;4995426;28;20193;-68
2021/06/24 14:05:03;;;;;;;13.32;9.57;;;;;;;;;;4987142;28;20202;-69
2021/06/24 14:07:29;;;;;;;12.95;9.32;;;;;;;;;;4996766;28;20618;-69
2021/06/24 14:09:54;;;;;;;11.48;8.57;;;;;;;;;;4985518;28;20187;-69
2021/06/24 14:12:19;;;;;;;10.45;8.18;;;;;;;;;;5009450;28;20198;-70
2021/06/24 14:14:45;;;;;;;12.07;8.63;;;;;;;;;;4989190;28;20655;-69
2021/06/24 14:17:10;;;;;;;11.48;8.30;;;;;;;;;;4996235;28;20179;-69
2021/06/24 14:19:36;;;;;;;10.73;8.18;;;;;;;;;;4997464;28;20214;-69
2021/06/24 14:22:06;;;;;;;9.43;7.80;;;;;;;;;;4987519;28;20191;-70
2021/06/24 14:24:34;;;;;;;10.75;7.97;;;;;;;;;;5010158;28;20218;-70
2021/06/24 14:27:01;;;;;;;10.73;8.15;;;;;;;;;;4988266;28;20304;-70
2021/06/24 14:29:27;;;;;;;11.20;7.88;;;;;;;;;;4997790;28;20194;-70
2021/06/24 14:31:56;;;;;;;9.35;7.97;;;;;;;;;;4989125;28;20725;-69
2021/06/24 14:34:23;;;;;;;9.40;6.97;;;;;;;;;;4996083;28;20226;-68
2021/06/24 14:36:48;;;;;;;9.15;7.72;;;;;;;;;;4987513;28;20745;-71
2021/06/24 14:39:14;;;;;;;9.60;8.35;;;;;;;;;;4991148;28;20195;-69
2021/06/24 14:41:40;;;;;;;12.45;7.70;;;;;;;;;;4986669;28;21378;-68
2021/06/24 14:44:06;;;;;;;9.68;8.13;;;;;;;;;;4995447;28;20530;-68
2021/06/24 14:46:32;;;;;;;12.27;8.60;;;;;;;;;;4987048;28;20577;-69
2021/06/24 14:48:57;;;;;;;10.45;7.97;;;;;;;;;;4995462;28;20235;-68
2021/06/24 14:51:22;;;;;;;9.30;7.57;;;;;;;;;;4991655;28;20522;-68
2021/06/24 14:53:48;;;;;;;11.90;7.97;;;;;;;;;;4991916;28;20226;-69
2021/06/24 14:56:18;;;;;;;9.10;8.10;;;;;;;;;;4994617;28;20190;-70
2021/06/24 14:58:46;;;;;;;8.93;8.05;;;;;;;;;;4988751;28;20201;-70
2021/06/24 15:01:12;;;;;;;8.98;8.07;;;;;;;;;;4994668;28;20767;-70